sensor_id;sensor_type;location;lat;lon;timestamp;temperature;humidity
4813;DHT22;2420;51.202;8.698;2023-08-06T00:00:53;14.30;1.00
4813;DHT22;2420;51.202;8.698;2023-08-06T00:03:19;14.30;1.00
4813;DHT22;2420;51.202;8.698;2023-08-06T00:05:44;14.30;1.00
4813;DHT22;2420;51.202;8.698;2023-08-06T00:08:10;14.30;1.00
4813;DHT22;2420;51.202;8.698;2023-08-06T00:10:35;14.30;1.00
4813;DHT22;2420;51.202;8.698;2023-08-06T00:13:01;14.30;1.00
4813;DHT22;2420;51.202;8.698;2023-08-06T00:15:26;14.30;1.00
4813;DHT22;2420;51.202;8.698;2023-08-06T00:17:52;14.30;1.00
4813;DHT22;2420;51.202;8.698;2023-08-06T00:20:17;14.30;1.00
4813;DHT22;2420;51.202;8.698;2023-08-06T00:22:43;14.30;1.00
4813;DHT22;2420;51.202;8.698;2023-08-06T00:25:08;14.30;1.00
4813;DHT22;2420;51.202;8.698;2023-08-06T00:27:34;14.30;1.00
4813;DHT22;2420;51.202;8.698;2023-08-06T00:29:59;14.30;1.00
4813;DHT22;2420;51.202;8.698;2023-08-06T00:32:25;14.30;1.00
4813;DHT22;2420;51.202;8.698;2023-08-06T00:34:50;14.40;1.00
4813;DHT22;2420;51.202;8.698;2023-08-06T00:37:17;14.30;1.00
4813;DHT22;2420;51.202;8.698;2023-08-06T00:39:43;14.30;1.00
4813;DHT22;2420;51.202;8.698;2023-08-06T00:42:09;14.30;1.00
4813;DHT22;2420;51.202;8.698;2023-08-06T00:44:35;14.30;1.00
4813;DHT22;2420;51.202;8.698;2023-08-06T00:47:01;14.30;1.00
4813;DHT22;2420;51.202;8.698;2023-08-06T00:49:27;14.30;1.00
4813;DHT22;2420;51.202;8.698;2023-08-06T00:51:53;14.20;1.00
4813;DHT22;2420;51.202;8.698;2023-08-06T00:54:18;14.20;1.00
4813;DHT22;2420;51.202;8.698;2023-08-06T00:56:44;14.20;1.00
4813;DHT22;2420;51.202;8.698;2023-08-06T00:59:11;14.20;1.00
4813;DHT22;2420;51.202;8.698;2023-08-06T01:01:37;14.20;1.00
4813;DHT22;2420;51.202;8.698;2023-08-06T01:04:03;14.20;1.00
4813;DHT22;2420;51.202;8.698;2023-08-06T01:06:49;14.20;1.00
4813;DHT22;2420;51.202;8.698;2023-08-06T01:09:27;14.20;1.00
4813;DHT22;2420;51.202;8.698;2023-08-06T01:12:18;14.20;1.00
4813;DHT22;2420;51.202;8.698;2023-08-06T01:14:53;14.20;1.00
4813;DHT22;2420;51.202;8.698;2023-08-06T01:17:24;14.20;1.00
4813;DHT22;2420;51.202;8.698;2023-08-06T01:19:52;14.30;1.00
4813;DHT22;2420;51.202;8.698;2023-08-06T01:22:17;14.20;1.00
4813;DHT22;2420;51.202;8.698;2023-08-06T01:24:48;14.20;1.00
4813;DHT22;2420;51.202;8.698;2023-08-06T01:27:43;14.20;1.00
4813;DHT22;2420;51.202;8.698;2023-08-06T01:30:15;14.20;1.00
4813;DHT22;2420;51.202;8.698;2023-08-06T01:32:48;14.20;1.00
4813;DHT22;2420;51.202;8.698;2023-08-06T01:35:16;14.40;1.00
4813;DHT22;2420;51.202;8.698;2023-08-06T01:37:43;14.40;1.00
4813;DHT22;2420;51.202;8.698;2023-08-06T01:40:12;14.40;1.00
4813;DHT22;2420;51.202;8.698;2023-08-06T01:42:39;14.40;1.00
4813;DHT22;2420;51.202;8.698;2023-08-06T01:45:06;14.30;1.00
4813;DHT22;2420;51.202;8.698;2023-08-06T01:47:32;14.30;1.00
4813;DHT22;2420;51.202;8.698;2023-08-06T01:49:58;14.30;1.00
4813;DHT22;2420;51.202;8.698;2023-08-06T01:52:23;14.30;1.00
4813;DHT22;2420;51.202;8.698;2023-08-06T01:54:49;14.30;1.00
4813;DHT22;2420;51.202;8.698;2023-08-06T01:57:14;14.40;1.00
4813;DHT22;2420;51.202;8.698;2023-08-06T01:59:40;14.40;1.00
4813;DHT22;2420;51.202;8.698;2023-08-06T02:02:05;14.40;1.00
4813;DHT22;2420;51.202;8.698;2023-08-06T02:04:31;14.40;1.00
4813;DHT22;2420;51.202;8.698;2023-08-06T02:06:56;14.30;1.00
4813;DHT22;2420;51.202;8.698;2023-08-06T02:09:22;14.30;1.00
4813;DHT22;2420;51.202;8.698;2023-08-06T02:11:47;14.20;1.00
4813;DHT22;2420;51.202;8.698;2023-08-06T02:14:13;14.10;1.00
4813;DHT22;2420;51.202;8.698;2023-08-06T02:16:39;14.00;1.00
4813;DHT22;2420;51.202;8.698;2023-08-06T02:19:04;14.00;1.00
4813;DHT22;2420;51.202;8.698;2023-08-06T02:21:30;14.00;1.00
4813;DHT22;2420;51.202;8.698;2023-08-06T02:23:55;14.10;1.00
4813;DHT22;2420;51.202;8.698;2023-08-06T02:26:21;14.00;1.00
4813;DHT22;2420;51.202;8.698;2023-08-06T02:28:46;14.10;1.00
4813;DHT22;2420;51.202;8.698;2023-08-06T02:31:12;14.10;1.00
4813;DHT22;2420;51.202;8.698;2023-08-06T02:33:37;14.10;1.00
4813;DHT22;2420;51.202;8.698;2023-08-06T02:36:03;14.20;1.00
4813;DHT22;2420;51.202;8.698;2023-08-06T02:38:30;14.10;1.00
4813;DHT22;2420;51.202;8.698;2023-08-06T02:40:56;14.10;1.00
4813;DHT22;2420;51.202;8.698;2023-08-06T02:43:21;14.10;1.00
4813;DHT22;2420;51.202;8.698;2023-08-06T02:45:47;14.10;1.00
4813;DHT22;2420;51.202;8.698;2023-08-06T02:48:12;14.10;1.00
4813;DHT22;2420;51.202;8.698;2023-08-06T02:50:40;14.10;1.00
4813;DHT22;2420;51.202;8.698;2023-08-06T02:53:07;14.10;1.00
4813;DHT22;2420;51.202;8.698;2023-08-06T02:55:33;14.20;1.00
4813;DHT22;2420;51.202;8.698;2023-08-06T02:58:00;14.10;1.00
4813;DHT22;2420;51.202;8.698;2023-08-06T03:00:26;14.20;1.00
4813;DHT22;2420;51.202;8.698;2023-08-06T03:02:52;14.10;1.00
4813;DHT22;2420;51.202;8.698;2023-08-06T03:05:17;14.20;1.00
4813;DHT22;2420;51.202;8.698;2023-08-06T03:07:43;14.10;1.00
4813;DHT22;2420;51.202;8.698;2023-08-06T03:10:09;14.10;1.00
4813;DHT22;2420;51.202;8.698;2023-08-06T03:12:34;14.10;1.00
4813;DHT22;2420;51.202;8.698;2023-08-06T03:15:00;14.10;1.00
4813;DHT22;2420;51.202;8.698;2023-08-06T03:17:25;14.10;1.00
4813;DHT22;2420;51.202;8.698;2023-08-06T03:19:51;14.10;1.00
4813;DHT22;2420;51.202;8.698;2023-08-06T03:22:17;14.20;1.00
4813;DHT22;2420;51.202;8.698;2023-08-06T03:24:42;14.20;1.00
4813;DHT22;2420;51.202;8.698;2023-08-06T03:27:08;14.20;1.00
4813;DHT22;2420;51.202;8.698;2023-08-06T03:29:33;14.20;1.00
4813;DHT22;2420;51.202;8.698;2023-08-06T03:31:59;14.20;1.00
4813;DHT22;2420;51.202;8.698;2023-08-06T03:34:24;14.20;1.00
4813;DHT22;2420;51.202;8.698;2023-08-06T03:36:50;14.20;1.00
4813;DHT22;2420;51.202;8.698;2023-08-06T03:39:15;14.20;1.00
4813;DHT22;2420;51.202;8.698;2023-08-06T03:41:41;14.20;1.00
4813;DHT22;2420;51.202;8.698;2023-08-06T03:44:06;14.20;1.00
4813;DHT22;2420;51.202;8.698;2023-08-06T03:46:32;14.30;1.00
4813;DHT22;2420;51.202;8.698;2023-08-06T03:48:59;14.20;1.00
4813;DHT22;2420;51.202;8.698;2023-08-06T03:51:25;14.30;1.00
4813;DHT22;2420;51.202;8.698;2023-08-06T03:53:50;14.20;1.00
4813;DHT22;2420;51.202;8.698;2023-08-06T03:56:16;14.30;1.00
4813;DHT22;2420;51.202;8.698;2023-08-06T03:58:42;14.30;1.00
4813;DHT22;2420;51.202;8.698;2023-08-06T04:01:07;14.30;1.00
4813;DHT22;2420;51.202;8.698;2023-08-06T04:03:33;14.40;1.00
4813;DHT22;2420;51.202;8.698;2023-08-06T04:05:59;14.40;1.00
4813;DHT22;2420;51.202;8.698;2023-08-06T04:08:24;14.40;1.00
4813;DHT22;2420;51.202;8.698;2023-08-06T04:10:52;14.40;1.00
4813;DHT22;2420;51.202;8.698;2023-08-06T04:13:18;14.40;1.00
4813;DHT22;2420;51.202;8.698;2023-08-06T04:15:43;14.30;1.00
4813;DHT22;2420;51.202;8.698;2023-08-06T04:18:09;14.30;1.00
4813;DHT22;2420;51.202;8.698;2023-08-06T04:20:35;14.30;1.00
4813;DHT22;2420;51.202;8.698;2023-08-06T04:23:06;14.30;1.00
4813;DHT22;2420;51.202;8.698;2023-08-06T04:25:31;14.40;1.00
4813;DHT22;2420;51.202;8.698;2023-08-06T04:27:57;14.40;1.00
4813;DHT22;2420;51.202;8.698;2023-08-06T04:30:22;14.30;1.00
4813;DHT22;2420;51.202;8.698;2023-08-06T04:32:49;14.40;1.00
4813;DHT22;2420;51.202;8.698;2023-08-06T04:35:15;14.40;1.00
4813;DHT22;2420;51.202;8.698;2023-08-06T04:37:41;14.40;1.00
4813;DHT22;2420;51.202;8.698;2023-08-06T04:40:07;14.40;1.00
4813;DHT22;2420;51.202;8.698;2023-08-06T04:42:32;14.40;1.00
4813;DHT22;2420;51.202;8.698;2023-08-06T04:44:58;14.50;1.00
4813;DHT22;2420;51.202;8.698;2023-08-06T04:47:24;14.50;1.00
4813;DHT22;2420;51.202;8.698;2023-08-06T04:49:51;14.50;1.00
4813;DHT22;2420;51.202;8.698;2023-08-06T04:52:16;14.50;1.00
4813;DHT22;2420;51.202;8.698;2023-08-06T04:54:43;14.50;1.00
4813;DHT22;2420;51.202;8.698;2023-08-06T04:57:09;14.50;1.00
4813;DHT22;2420;51.202;8.698;2023-08-06T04:59:35;14.50;1.00
4813;DHT22;2420;51.202;8.698;2023-08-06T05:02:00;14.50;1.00
4813;DHT22;2420;51.202;8.698;2023-08-06T05:04:26;14.50;1.00
4813;DHT22;2420;51.202;8.698;2023-08-06T05:06:52;14.50;1.00
4813;DHT22;2420;51.202;8.698;2023-08-06T05:09:17;14.50;1.00
4813;DHT22;2420;51.202;8.698;2023-08-06T05:11:43;14.60;1.00
4813;DHT22;2420;51.202;8.698;2023-08-06T05:14:08;14.70;1.00
4813;DHT22;2420;51.202;8.698;2023-08-06T05:16:34;14.70;1.00
4813;DHT22;2420;51.202;8.698;2023-08-06T05:18:59;14.70;1.00
4813;DHT22;2420;51.202;8.698;2023-08-06T05:21:25;14.70;1.00
4813;DHT22;2420;51.202;8.698;2023-08-06T05:23:50;14.60;1.00
4813;DHT22;2420;51.202;8.698;2023-08-06T05:26:16;14.60;1.00
4813;DHT22;2420;51.202;8.698;2023-08-06T05:28:44;14.60;1.00
4813;DHT22;2420;51.202;8.698;2023-08-06T05:31:10;14.60;1.00
4813;DHT22;2420;51.202;8.698;2023-08-06T05:33:35;14.60;1.00
4813;DHT22;2420;51.202;8.698;2023-08-06T05:36:01;14.60;1.00
4813;DHT22;2420;51.202;8.698;2023-08-06T05:38:26;14.60;1.00
4813;DHT22;2420;51.202;8.698;2023-08-06T05:40:52;14.60;1.00
4813;DHT22;2420;51.202;8.698;2023-08-06T05:43:18;14.60;1.00
4813;DHT22;2420;51.202;8.698;2023-08-06T05:45:48;14.60;1.00
4813;DHT22;2420;51.202;8.698;2023-08-06T05:48:14;14.60;1.00
4813;DHT22;2420;51.202;8.698;2023-08-06T05:50:39;14.70;1.00
4813;DHT22;2420;51.202;8.698;2023-08-06T05:53:05;14.70;1.00
4813;DHT22;2420;51.202;8.698;2023-08-06T05:55:31;14.80;1.00
4813;DHT22;2420;51.202;8.698;2023-08-06T05:57:57;14.80;1.00
4813;DHT22;2420;51.202;8.698;2023-08-06T06:00:23;14.90;1.00
4813;DHT22;2420;51.202;8.698;2023-08-06T06:02:48;14.90;1.00
4813;DHT22;2420;51.202;8.698;2023-08-06T06:05:14;14.90;1.00
4813;DHT22;2420;51.202;8.698;2023-08-06T06:07:40;14.90;1.00
4813;DHT22;2420;51.202;8.698;2023-08-06T06:10:06;14.90;1.00
4813;DHT22;2420;51.202;8.698;2023-08-06T06:12:31;14.90;1.00
4813;DHT22;2420;51.202;8.698;2023-08-06T06:14:57;15.00;1.00
4813;DHT22;2420;51.202;8.698;2023-08-06T06:17:22;15.00;1.00
4813;DHT22;2420;51.202;8.698;2023-08-06T06:19:48;15.00;1.00
4813;DHT22;2420;51.202;8.698;2023-08-06T06:22:14;15.00;1.00
4813;DHT22;2420;51.202;8.698;2023-08-06T06:24:39;15.00;1.00
4813;DHT22;2420;51.202;8.698;2023-08-06T06:27:05;15.00;1.00
4813;DHT22;2420;51.202;8.698;2023-08-06T06:29:30;15.00;1.00
4813;DHT22;2420;51.202;8.698;2023-08-06T06:31:56;15.00;1.00
4813;DHT22;2420;51.202;8.698;2023-08-06T06:34:21;14.90;1.00
4813;DHT22;2420;51.202;8.698;2023-08-06T06:36:47;14.90;1.00
4813;DHT22;2420;51.202;8.698;2023-08-06T06:39:13;14.90;1.00
4813;DHT22;2420;51.202;8.698;2023-08-06T06:41:39;14.90;1.00
4813;DHT22;2420;51.202;8.698;2023-08-06T06:44:05;14.90;1.00
4813;DHT22;2420;51.202;8.698;2023-08-06T06:46:31;15.00;1.00
4813;DHT22;2420;51.202;8.698;2023-08-06T06:48:56;15.00;1.00
4813;DHT22;2420;51.202;8.698;2023-08-06T06:51:22;15.10;1.00
4813;DHT22;2420;51.202;8.698;2023-08-06T06:53:47;15.10;1.00
4813;DHT22;2420;51.202;8.698;2023-08-06T06:56:14;15.20;1.00
4813;DHT22;2420;51.202;8.698;2023-08-06T06:58:39;15.20;1.00
4813;DHT22;2420;51.202;8.698;2023-08-06T07:01:06;15.20;1.00
4813;DHT22;2420;51.202;8.698;2023-08-06T07:03:32;15.30;1.00
4813;DHT22;2420;51.202;8.698;2023-08-06T07:05:58;15.30;1.00
4813;DHT22;2420;51.202;8.698;2023-08-06T07:08:24;15.40;1.00
4813;DHT22;2420;51.202;8.698;2023-08-06T07:10:50;15.50;1.00
4813;DHT22;2420;51.202;8.698;2023-08-06T07:13:15;15.50;1.00
4813;DHT22;2420;51.202;8.698;2023-08-06T07:15:42;15.60;1.00
4813;DHT22;2420;51.202;8.698;2023-08-06T07:18:07;15.60;1.00
4813;DHT22;2420;51.202;8.698;2023-08-06T07:20:33;15.60;1.00
4813;DHT22;2420;51.202;8.698;2023-08-06T07:23:00;15.70;1.00
4813;DHT22;2420;51.202;8.698;2023-08-06T07:25:25;15.70;1.00
4813;DHT22;2420;51.202;8.698;2023-08-06T07:27:51;15.70;1.00
4813;DHT22;2420;51.202;8.698;2023-08-06T07:30:16;15.80;1.00
4813;DHT22;2420;51.202;8.698;2023-08-06T07:32:42;15.80;1.00
4813;DHT22;2420;51.202;8.698;2023-08-06T07:35:08;15.90;1.00
4813;DHT22;2420;51.202;8.698;2023-08-06T07:37:40;15.90;1.00
4813;DHT22;2420;51.202;8.698;2023-08-06T07:40:06;16.00;1.00
4813;DHT22;2420;51.202;8.698;2023-08-06T07:42:32;16.00;1.00
4813;DHT22;2420;51.202;8.698;2023-08-06T07:44:58;16.20;1.00
4813;DHT22;2420;51.202;8.698;2023-08-06T07:47:24;16.40;1.00
4813;DHT22;2420;51.202;8.698;2023-08-06T07:49:50;16.50;1.00
4813;DHT22;2420;51.202;8.698;2023-08-06T07:52:15;16.50;1.00
4813;DHT22;2420;51.202;8.698;2023-08-06T07:54:41;16.70;1.00
4813;DHT22;2420;51.202;8.698;2023-08-06T07:57:07;17.00;1.00
4813;DHT22;2420;51.202;8.698;2023-08-06T07:59:33;17.10;1.00
4813;DHT22;2420;51.202;8.698;2023-08-06T08:01:59;17.30;1.00
4813;DHT22;2420;51.202;8.698;2023-08-06T08:04:25;17.50;1.00
4813;DHT22;2420;51.202;8.698;2023-08-06T08:06:51;17.60;1.00
4813;DHT22;2420;51.202;8.698;2023-08-06T08:09:16;17.80;1.00
4813;DHT22;2420;51.202;8.698;2023-08-06T08:11:42;17.90;1.00
4813;DHT22;2420;51.202;8.698;2023-08-06T08:14:08;18.10;1.00
4813;DHT22;2420;51.202;8.698;2023-08-06T08:16:33;18.20;1.00
4813;DHT22;2420;51.202;8.698;2023-08-06T08:18:59;18.40;1.00
4813;DHT22;2420;51.202;8.698;2023-08-06T08:21:24;18.40;1.00
4813;DHT22;2420;51.202;8.698;2023-08-06T08:23:51;18.40;1.00
4813;DHT22;2420;51.202;8.698;2023-08-06T08:26:16;18.60;1.00
4813;DHT22;2420;51.202;8.698;2023-08-06T08:28:43;18.70;1.00
4813;DHT22;2420;51.202;8.698;2023-08-06T08:31:09;18.90;1.00
4813;DHT22;2420;51.202;8.698;2023-08-06T08:33:35;19.00;1.00
4813;DHT22;2420;51.202;8.698;2023-08-06T08:36:00;18.80;1.00
4813;DHT22;2420;51.202;8.698;2023-08-06T08:38:26;18.80;1.00
4813;DHT22;2420;51.202;8.698;2023-08-06T08:40:53;18.90;1.00
4813;DHT22;2420;51.202;8.698;2023-08-06T08:43:21;19.00;1.00
4813;DHT22;2420;51.202;8.698;2023-08-06T08:45:50;19.00;1.00
4813;DHT22;2420;51.202;8.698;2023-08-06T08:48:17;19.30;1.00
4813;DHT22;2420;51.202;8.698;2023-08-06T08:50:47;19.40;1.00
4813;DHT22;2420;51.202;8.698;2023-08-06T08:53:14;19.40;1.00
4813;DHT22;2420;51.202;8.698;2023-08-06T08:55:40;19.60;1.00
4813;DHT22;2420;51.202;8.698;2023-08-06T08:58:07;19.70;1.00
4813;DHT22;2420;51.202;8.698;2023-08-06T09:00:34;19.80;1.00
4813;DHT22;2420;51.202;8.698;2023-08-06T09:03:01;20.00;1.00
4813;DHT22;2420;51.202;8.698;2023-08-06T09:05:28;20.10;1.00
4813;DHT22;2420;51.202;8.698;2023-08-06T09:08:04;19.70;1.00
4813;DHT22;2420;51.202;8.698;2023-08-06T09:10:30;19.10;1.00
4813;DHT22;2420;51.202;8.698;2023-08-06T09:12:56;18.80;1.00
4813;DHT22;2420;51.202;8.698;2023-08-06T09:15:26;19.00;1.00
4813;DHT22;2420;51.202;8.698;2023-08-06T09:17:53;19.10;1.00
4813;DHT22;2420;51.202;8.698;2023-08-06T09:20:19;18.80;1.00
4813;DHT22;2420;51.202;8.698;2023-08-06T09:22:44;18.70;1.00
4813;DHT22;2420;51.202;8.698;2023-08-06T09:25:11;18.50;1.00
4813;DHT22;2420;51.202;8.698;2023-08-06T09:27:39;18.30;1.00
4813;DHT22;2420;51.202;8.698;2023-08-06T09:30:06;18.60;1.00
4813;DHT22;2420;51.202;8.698;2023-08-06T09:32:48;18.80;1.00
4813;DHT22;2420;51.202;8.698;2023-08-06T09:35:17;19.10;1.00
4813;DHT22;2420;51.202;8.698;2023-08-06T09:37:43;19.30;1.00
4813;DHT22;2420;51.202;8.698;2023-08-06T09:40:31;19.70;1.00
4813;DHT22;2420;51.202;8.698;2023-08-06T09:42:57;20.10;1.00
4813;DHT22;2420;51.202;8.698;2023-08-06T09:45:32;20.40;1.00
4813;DHT22;2420;51.202;8.698;2023-08-06T09:47:58;20.30;1.00
4813;DHT22;2420;51.202;8.698;2023-08-06T09:50:29;20.10;1.00
4813;DHT22;2420;51.202;8.698;2023-08-06T09:52:57;20.40;1.00
4813;DHT22;2420;51.202;8.698;2023-08-06T09:55:23;20.70;1.00
4813;DHT22;2420;51.202;8.698;2023-08-06T09:57:50;20.80;1.00
4813;DHT22;2420;51.202;8.698;2023-08-06T10:00:16;21.00;1.00
4813;DHT22;2420;51.202;8.698;2023-08-06T10:02:43;21.20;1.00
4813;DHT22;2420;51.202;8.698;2023-08-06T10:05:09;20.80;1.00
4813;DHT22;2420;51.202;8.698;2023-08-06T10:07:35;20.90;1.00
4813;DHT22;2420;51.202;8.698;2023-08-06T10:10:02;20.70;1.00
4813;DHT22;2420;51.202;8.698;2023-08-06T10:12:34;20.80;1.00
4813;DHT22;2420;51.202;8.698;2023-08-06T10:15:03;21.10;1.00
4813;DHT22;2420;51.202;8.698;2023-08-06T10:17:31;21.40;1.00
4813;DHT22;2420;51.202;8.698;2023-08-06T10:19:59;21.30;1.00
4813;DHT22;2420;51.202;8.698;2023-08-06T10:22:24;21.40;1.00
4813;DHT22;2420;51.202;8.698;2023-08-06T10:24:54;21.50;1.00
4813;DHT22;2420;51.202;8.698;2023-08-06T10:27:21;21.50;1.00
4813;DHT22;2420;51.202;8.698;2023-08-06T10:29:47;21.30;1.00
4813;DHT22;2420;51.202;8.698;2023-08-06T10:32:14;21.40;1.00
4813;DHT22;2420;51.202;8.698;2023-08-06T10:34:59;21.60;1.00
4813;DHT22;2420;51.202;8.698;2023-08-06T10:37:36;22.00;1.00
4813;DHT22;2420;51.202;8.698;2023-08-06T10:40:02;22.00;1.00
4813;DHT22;2420;51.202;8.698;2023-08-06T10:42:29;21.80;1.00
4813;DHT22;2420;51.202;8.698;2023-08-06T10:45:18;22.10;1.00
4813;DHT22;2420;51.202;8.698;2023-08-06T10:47:45;22.20;1.00
4813;DHT22;2420;51.202;8.698;2023-08-06T10:50:15;22.50;1.00
4813;DHT22;2420;51.202;8.698;2023-08-06T10:52:47;22.60;1.00
4813;DHT22;2420;51.202;8.698;2023-08-06T10:55:14;22.60;1.00
4813;DHT22;2420;51.202;8.698;2023-08-06T10:57:47;22.00;1.00
4813;DHT22;2420;51.202;8.698;2023-08-06T11:00:13;22.30;1.00
4813;DHT22;2420;51.202;8.698;2023-08-06T11:02:39;22.40;1.00
4813;DHT22;2420;51.202;8.698;2023-08-06T11:05:08;22.30;1.00
4813;DHT22;2420;51.202;8.698;2023-08-06T11:07:35;22.20;1.00
4813;DHT22;2420;51.202;8.698;2023-08-06T11:10:05;22.30;1.00
4813;DHT22;2420;51.202;8.698;2023-08-06T11:12:32;22.10;1.00
4813;DHT22;2420;51.202;8.698;2023-08-06T11:14:58;21.80;1.00
4813;DHT22;2420;51.202;8.698;2023-08-06T11:17:24;21.50;1.00
4813;DHT22;2420;51.202;8.698;2023-08-06T11:19:50;21.20;1.00
4813;DHT22;2420;51.202;8.698;2023-08-06T11:22:16;21.10;1.00
4813;DHT22;2420;51.202;8.698;2023-08-06T11:24:41;20.80;1.00
4813;DHT22;2420;51.202;8.698;2023-08-06T11:27:13;20.40;1.00
4813;DHT22;2420;51.202;8.698;2023-08-06T11:29:40;20.10;1.00
4813;DHT22;2420;51.202;8.698;2023-08-06T11:32:10;19.80;1.00
4813;DHT22;2420;51.202;8.698;2023-08-06T11:34:36;19.30;1.00
4813;DHT22;2420;51.202;8.698;2023-08-06T11:37:03;19.10;1.00
4813;DHT22;2420;51.202;8.698;2023-08-06T11:39:34;18.90;1.00
4813;DHT22;2420;51.202;8.698;2023-08-06T11:42:00;18.80;1.00
4813;DHT22;2420;51.202;8.698;2023-08-06T11:44:40;18.60;1.00
4813;DHT22;2420;51.202;8.698;2023-08-06T11:47:16;18.40;1.00
4813;DHT22;2420;51.202;8.698;2023-08-06T11:52:21;18.20;1.00
4813;DHT22;2420;51.202;8.698;2023-08-06T11:55:03;18.10;1.00
4813;DHT22;2420;51.202;8.698;2023-08-06T11:57:32;18.00;1.00
4813;DHT22;2420;51.202;8.698;2023-08-06T12:00:11;18.10;1.00
4813;DHT22;2420;51.202;8.698;2023-08-06T12:02:42;18.00;1.00
4813;DHT22;2420;51.202;8.698;2023-08-06T12:05:17;18.00;1.00
4813;DHT22;2420;51.202;8.698;2023-08-06T12:07:47;17.90;1.00
4813;DHT22;2420;51.202;8.698;2023-08-06T12:10:13;17.80;1.00
4813;DHT22;2420;51.202;8.698;2023-08-06T12:12:39;17.70;1.00
4813;DHT22;2420;51.202;8.698;2023-08-06T12:15:06;17.50;1.00
4813;DHT22;2420;51.202;8.698;2023-08-06T12:17:32;17.30;1.00
4813;DHT22;2420;51.202;8.698;2023-08-06T12:19:58;17.20;1.00
4813;DHT22;2420;51.202;8.698;2023-08-06T12:22:24;17.20;1.00
4813;DHT22;2420;51.202;8.698;2023-08-06T12:24:50;17.10;1.00
4813;DHT22;2420;51.202;8.698;2023-08-06T12:27:15;17.00;1.00
4813;DHT22;2420;51.202;8.698;2023-08-06T12:29:45;16.90;1.00
4813;DHT22;2420;51.202;8.698;2023-08-06T12:32:11;16.80;1.00
4813;DHT22;2420;51.202;8.698;2023-08-06T12:34:38;16.70;1.00
4813;DHT22;2420;51.202;8.698;2023-08-06T12:37:04;16.70;1.00
4813;DHT22;2420;51.202;8.698;2023-08-06T12:39:30;16.70;1.00
4813;DHT22;2420;51.202;8.698;2023-08-06T12:41:57;16.70;1.00
4813;DHT22;2420;51.202;8.698;2023-08-06T12:44:23;16.70;1.00
4813;DHT22;2420;51.202;8.698;2023-08-06T12:46:50;16.80;1.00
4813;DHT22;2420;51.202;8.698;2023-08-06T12:49:16;16.70;1.00
4813;DHT22;2420;51.202;8.698;2023-08-06T12:51:42;16.70;1.00
4813;DHT22;2420;51.202;8.698;2023-08-06T12:54:08;16.80;1.00
4813;DHT22;2420;51.202;8.698;2023-08-06T12:56:34;16.80;1.00
4813;DHT22;2420;51.202;8.698;2023-08-06T12:58:59;16.90;1.00
4813;DHT22;2420;51.202;8.698;2023-08-06T13:01:25;16.90;1.00
4813;DHT22;2420;51.202;8.698;2023-08-06T13:03:51;17.00;1.00
4813;DHT22;2420;51.202;8.698;2023-08-06T13:06:16;17.00;1.00
4813;DHT22;2420;51.202;8.698;2023-08-06T13:08:42;17.00;1.00
4813;DHT22;2420;51.202;8.698;2023-08-06T13:11:07;17.10;1.00
4813;DHT22;2420;51.202;8.698;2023-08-06T13:13:33;17.20;1.00
4813;DHT22;2420;51.202;8.698;2023-08-06T13:15:59;17.10;1.00
4813;DHT22;2420;51.202;8.698;2023-08-06T13:18:24;17.00;1.00
4813;DHT22;2420;51.202;8.698;2023-08-06T13:20:53;17.00;1.00
4813;DHT22;2420;51.202;8.698;2023-08-06T13:23:19;17.00;1.00
4813;DHT22;2420;51.202;8.698;2023-08-06T13:25:45;17.00;1.00
4813;DHT22;2420;51.202;8.698;2023-08-06T13:28:11;17.00;1.00
4813;DHT22;2420;51.202;8.698;2023-08-06T13:30:36;16.90;1.00
4813;DHT22;2420;51.202;8.698;2023-08-06T13:33:07;17.00;1.00
4813;DHT22;2420;51.202;8.698;2023-08-06T13:35:33;17.10;1.00
4813;DHT22;2420;51.202;8.698;2023-08-06T13:37:58;17.10;1.00
4813;DHT22;2420;51.202;8.698;2023-08-06T13:40:24;17.10;1.00
4813;DHT22;2420;51.202;8.698;2023-08-06T13:42:49;17.20;1.00
4813;DHT22;2420;51.202;8.698;2023-08-06T13:45:15;17.20;1.00
4813;DHT22;2420;51.202;8.698;2023-08-06T13:47:41;17.30;1.00
4813;DHT22;2420;51.202;8.698;2023-08-06T13:50:07;17.40;1.00
4813;DHT22;2420;51.202;8.698;2023-08-06T13:52:33;17.40;1.00
4813;DHT22;2420;51.202;8.698;2023-08-06T13:55:01;17.40;1.00
4813;DHT22;2420;51.202;8.698;2023-08-06T13:57:26;17.50;1.00
4813;DHT22;2420;51.202;8.698;2023-08-06T13:59:52;17.50;1.00
4813;DHT22;2420;51.202;8.698;2023-08-06T14:02:17;17.60;1.00
4813;DHT22;2420;51.202;8.698;2023-08-06T14:04:43;17.50;1.00
4813;DHT22;2420;51.202;8.698;2023-08-06T14:07:08;17.60;1.00
4813;DHT22;2420;51.202;8.698;2023-08-06T14:09:35;17.60;1.00
4813;DHT22;2420;51.202;8.698;2023-08-06T14:12:00;17.50;1.00
4813;DHT22;2420;51.202;8.698;2023-08-06T14:14:26;17.40;1.00
4813;DHT22;2420;51.202;8.698;2023-08-06T14:16:55;17.10;1.00
4813;DHT22;2420;51.202;8.698;2023-08-06T14:19:21;17.00;1.00
4813;DHT22;2420;51.202;8.698;2023-08-06T14:21:46;17.00;1.00
4813;DHT22;2420;51.202;8.698;2023-08-06T14:24:12;17.00;1.00
4813;DHT22;2420;51.202;8.698;2023-08-06T14:26:38;17.00;1.00
4813;DHT22;2420;51.202;8.698;2023-08-06T14:29:04;16.90;1.00
4813;DHT22;2420;51.202;8.698;2023-08-06T14:31:30;17.00;1.00
4813;DHT22;2420;51.202;8.698;2023-08-06T14:33:55;17.00;1.00
4813;DHT22;2420;51.202;8.698;2023-08-06T14:36:21;16.90;1.00
4813;DHT22;2420;51.202;8.698;2023-08-06T14:38:46;16.90;1.00
4813;DHT22;2420;51.202;8.698;2023-08-06T14:41:12;16.80;1.00
4813;DHT22;2420;51.202;8.698;2023-08-06T14:43:37;16.80;1.00
4813;DHT22;2420;51.202;8.698;2023-08-06T14:46:03;16.80;1.00
4813;DHT22;2420;51.202;8.698;2023-08-06T14:48:29;16.70;1.00
4813;DHT22;2420;51.202;8.698;2023-08-06T14:50:55;16.80;1.00
4813;DHT22;2420;51.202;8.698;2023-08-06T14:53:21;16.90;1.00
4813;DHT22;2420;51.202;8.698;2023-08-06T14:55:46;17.00;1.00
4813;DHT22;2420;51.202;8.698;2023-08-06T14:58:12;17.10;1.00
4813;DHT22;2420;51.202;8.698;2023-08-06T15:00:37;17.00;1.00
4813;DHT22;2420;51.202;8.698;2023-08-06T15:03:03;16.80;1.00
4813;DHT22;2420;51.202;8.698;2023-08-06T15:05:28;16.60;1.00
4813;DHT22;2420;51.202;8.698;2023-08-06T15:07:54;16.60;1.00
4813;DHT22;2420;51.202;8.698;2023-08-06T15:10:20;16.50;1.00
4813;DHT22;2420;51.202;8.698;2023-08-06T15:12:46;16.50;1.00
4813;DHT22;2420;51.202;8.698;2023-08-06T15:15:11;16.40;1.00
4813;DHT22;2420;51.202;8.698;2023-08-06T15:17:37;16.20;1.00
4813;DHT22;2420;51.202;8.698;2023-08-06T15:20:03;16.30;1.00
4813;DHT22;2420;51.202;8.698;2023-08-06T15:22:29;16.30;1.00
4813;DHT22;2420;51.202;8.698;2023-08-06T15:24:59;16.20;1.00
4813;DHT22;2420;51.202;8.698;2023-08-06T15:27:24;16.10;1.00
4813;DHT22;2420;51.202;8.698;2023-08-06T15:29:50;15.90;1.00
4813;DHT22;2420;51.202;8.698;2023-08-06T15:32:15;15.80;1.00
4813;DHT22;2420;51.202;8.698;2023-08-06T15:34:41;15.70;1.00
4813;DHT22;2420;51.202;8.698;2023-08-06T15:37:07;15.50;1.00
4813;DHT22;2420;51.202;8.698;2023-08-06T15:39:35;15.40;1.00
4813;DHT22;2420;51.202;8.698;2023-08-06T15:42:01;15.30;1.00
4813;DHT22;2420;51.202;8.698;2023-08-06T15:44:26;15.20;1.00
4813;DHT22;2420;51.202;8.698;2023-08-06T15:46:52;15.30;1.00
4813;DHT22;2420;51.202;8.698;2023-08-06T15:49:17;15.20;1.00
4813;DHT22;2420;51.202;8.698;2023-08-06T15:51:43;15.10;1.00
4813;DHT22;2420;51.202;8.698;2023-08-06T15:54:09;15.10;1.00
4813;DHT22;2420;51.202;8.698;2023-08-06T15:56:34;15.10;1.00
4813;DHT22;2420;51.202;8.698;2023-08-06T15:59:21;15.10;1.00
4813;DHT22;2420;51.202;8.698;2023-08-06T16:01:46;15.20;1.00
4813;DHT22;2420;51.202;8.698;2023-08-06T16:04:12;15.30;1.00
4813;DHT22;2420;51.202;8.698;2023-08-06T16:06:37;15.30;1.00
4813;DHT22;2420;51.202;8.698;2023-08-06T16:09:03;15.40;1.00
4813;DHT22;2420;51.202;8.698;2023-08-06T16:11:28;15.40;1.00
4813;DHT22;2420;51.202;8.698;2023-08-06T16:13:54;15.30;1.00
4813;DHT22;2420;51.202;8.698;2023-08-06T16:16:19;15.20;1.00